Blairsville, Illinois
Current Conditions -  °F | °C
As of 10:49 AM on Thursday 18 Dec 2014 (Local Time) from KMWA Reporting Station
Light Snow Light Snow  
Wind Chill: 27°   Ceiling: 700
Heat Index: 32°   Visibility: 3mi
Dew Point: 30°   Wind: 5mph
Humidity: 93%   Direction: 60°ENE
Pressure: 30.31"   Gusts: NA
Location:  37.7927°N, 89.0997°W
Report Text: KMWA 181649Z 06004KT 3SM -SN BKN007 OVC038 00/M01 A3031
Loading
Personal Weather Stations






























Interactive Weather Map New forecast layout! Learn more

10-Day Weather Forecast

Advertisements
Track Severe Weather on mobile